Kanata, Canada
Current Conditions -  °F | °C
As of 1:00 AM on Thursday 23 Oct 2014 (Local Time) from CYOW Reporting Station
Clear Clear  
Wind Chill: 39°   Ceiling: Unl
Heat Index: 45°   Visibility: 15mi
Dew Point: 36°   Wind: 10mph
Humidity: 71%   Direction: 10°N
Pressure: 30.2"   Gusts: NA
Location:  45.3°N, 75.91°W
Report Text: CYOW 230500Z 01009KT 15SM SKC 07/02 A3020 RMK SLP228
Loading
Personal Weather Stations






























Interactive Weather Map
Tropical Storm Tracking
New forecast layout! Learn more

10-Day Weather Forecast

Advertisements
Track Severe Weather on mobile